Time;durP1;ratioP1;P1;durP2;ratioP2;P2;SDS_P1;SDS_P2;PMS_P1;PMS_P2;Temp;Humidity;BMP_temperature;BMP_pressure;BME280_temperature;BME280_humidity;BME280_pressure;Samples;Min_cycle;Max_cycle;Signal;HPM_P1;HPM_P2
2022/01/29 00:02:03;;;;;;;;;;;3.90;95.50;;;;;;5062961;28;19928;-75
2022/01/29 00:04:30;;;;;;;;;;;3.90;95.50;;;;;;5059620;28;19935;-76
2022/01/29 00:06:56;;;;;;;;;;;3.90;95.50;;;;;;5064404;28;19983;-76
2022/01/29 00:09:24;;;;;;;;;;;3.90;95.50;;;;;;5063287;28;19981;-76
2022/01/29 00:11:50;;;;;;;;;;;3.90;95.50;;;;;;5062787;28;19928;-76
2022/01/29 00:14:17;;;;;;;;;;;3.90;95.50;;;;;;5061999;28;19924;-76
2022/01/29 00:16:44;;;;;;;;;;;3.90;95.50;;;;;;5059574;28;19940;-75
2022/01/29 00:19:11;;;;;;;;;;;3.90;95.60;;;;;;5060095;28;20385;-76
2022/01/29 00:21:37;;;;;;;;;;;3.90;95.50;;;;;;5068066;28;19982;-75
2022/01/29 00:24:04;;;;;;;;;;;3.80;95.50;;;;;;5064480;28;19932;-76
2022/01/29 00:26:32;;;;;;;;;;;3.80;95.60;;;;;;5060684;28;19929;-76
2022/01/29 00:29:04;;;;;;;;;;;3.80;95.60;;;;;;5063371;28;19927;-76
2022/01/29 00:31:31;;;;;;;;;;;3.90;95.60;;;;;;5062367;28;19928;-77
2022/01/29 00:33:58;;;;;;;;;;;3.80;95.60;;;;;;5066525;28;19943;-75
2022/01/29 00:36:24;;;;;;;;;;;3.80;95.60;;;;;;5061754;28;20066;-76
2022/01/29 00:38:51;;;;;;;;;;;3.80;95.60;;;;;;5061075;28;19936;-75
2022/01/29 00:41:17;;;;;;;;;;;3.80;95.60;;;;;;5065523;28;19936;-75
2022/01/29 00:43:45;;;;;;;;;;;3.80;95.60;;;;;;5062899;28;19940;-76
2022/01/29 00:46:12;;;;;;;;;;;3.80;95.60;;;;;;5063447;28;19982;-77
2022/01/29 00:48:38;;;;;;;;;;;3.80;95.60;;;;;;5060435;28;19939;-76
2022/01/29 00:51:05;;;;;;;;;;;3.80;95.60;;;;;;5063802;28;19924;-76
2022/01/29 00:53:31;;;;;;;;;;;3.80;95.60;;;;;;5068645;28;19990;-76
2022/01/29 00:55:58;;;;;;;;;;;3.80;95.60;;;;;;5066874;28;19935;-76
2022/01/29 00:58:24;;;;;;;;;;;3.80;95.60;;;;;;5062717;28;20448;-75
2022/01/29 01:00:52;;;;;;;;;;;3.80;95.60;;;;;;5061242;28;19932;-75
2022/01/29 01:03:19;;;;;;;;;;;3.80;95.60;;;;;;5062409;28;20387;-75
2022/01/29 01:05:45;;;;;;;;;;;3.80;95.60;;;;;;5063090;28;19928;-76
2022/01/29 01:08:12;;;;;;;;;;;3.80;95.60;;;;;;5064218;28;19929;-75
2022/01/29 01:10:39;;;;;;;;;;;3.70;95.60;;;;;;5061117;28;20339;-75
2022/01/29 01:13:05;;;;;;;;;;;3.80;95.60;;;;;;5058909;28;20071;-75
2022/01/29 01:15:33;;;;;;;;;;;3.80;95.60;;;;;;5063025;28;19928;-75
2022/01/29 01:18:01;;;;;;;;;;;3.80;95.60;;;;;;5059740;28;19928;-75
2022/01/29 01:20:28;;;;;;;;;;;3.80;95.70;;;;;;5060494;28;20596;-76
2022/01/29 01:22:54;;;;;;;;;;;3.80;95.60;;;;;;5062048;28;19937;-76
2022/01/29 01:25:21;;;;;;;;;;;3.70;95.60;;;;;;5060650;28;19958;-77
2022/01/29 01:27:48;;;;;;;;;;;3.80;95.70;;;;;;5064630;28;19953;-75
2022/01/29 01:30:14;;;;;;;;;;;3.70;95.60;;;;;;5064015;28;19936;-76
2022/01/29 01:32:41;;;;;;;;;;;3.80;95.70;;;;;;5066175;28;19929;-76
2022/01/29 01:35:15;;;;;;;;;;;3.80;95.70;;;;;;5064489;28;20435;-76
2022/01/29 01:37:47;;;;;;;;;;;3.80;95.70;;;;;;5067451;28;19928;-76
2022/01/29 01:40:14;;;;;;;;;;;3.70;95.60;;;;;;5060270;28;19933;-76
2022/01/29 01:42:41;;;;;;;;;;;3.80;95.70;;;;;;5064651;28;19928;-75
2022/01/29 01:45:08;;;;;;;;;;;3.70;95.60;;;;;;5064651;28;20277;-75
2022/01/29 01:47:35;;;;;;;;;;;3.70;95.60;;;;;;5066535;28;19967;-76
2022/01/29 01:50:01;;;;;;;;;;;3.70;95.60;;;;;;5066731;28;19958;-75
2022/01/29 01:52:29;;;;;;;;;;;3.70;95.60;;;;;;5064267;28;19935;-76
2022/01/29 01:54:56;;;;;;;;;;;3.70;95.60;;;;;;5065080;28;19932;-75
2022/01/29 01:57:22;;;;;;;;;;;3.70;95.60;;;;;;5063804;28;19929;-76
2022/01/29 01:59:49;;;;;;;;;;;3.70;95.60;;;;;;5063625;28;19997;-76
2022/01/29 02:02:15;;;;;;;;;;;3.70;95.60;;;;;;5063293;28;19936;-74
2022/01/29 02:04:42;;;;;;;;;;;3.70;95.60;;;;;;5064713;28;19935;-76
2022/01/29 02:07:09;;;;;;;;;;;3.70;95.60;;;;;;5065987;28;19928;-75
2022/01/29 02:09:39;;;;;;;;;;;3.70;95.60;;;;;;5064516;28;19940;-78
2022/01/29 02:12:05;;;;;;;;;;;3.70;95.60;;;;;;5062726;28;19951;-75
2022/01/29 02:14:34;;;;;;;;;;;3.70;95.60;;;;;;5071471;28;19932;-76
2022/01/29 02:17:01;;;;;;;;;;;3.70;95.60;;;;;;5064589;28;19929;-76
2022/01/29 02:19:28;;;;;;;;;;;3.70;95.60;;;;;;5064131;28;19929;-75
2022/01/29 02:21:56;;;;;;;;;;;3.70;95.60;;;;;;5067202;28;19932;-76
2022/01/29 02:24:22;;;;;;;;;;;3.70;95.60;;;;;;5065481;28;19935;-75
2022/01/29 02:26:49;;;;;;;;;;;3.70;95.60;;;;;;5065591;28;19932;-75
2022/01/29 02:29:16;;;;;;;;;;;3.60;95.50;;;;;;5069693;28;20644;-75
2022/01/29 02:31:46;;;;;;;;;;;3.70;95.60;;;;;;5066509;28;20023;-75
2022/01/29 02:34:13;;;;;;;;;;;3.60;95.50;;;;;;5065197;28;20392;-76
2022/01/29 02:36:41;;;;;;;;;;;3.60;95.50;;;;;;5066243;28;19951;-75
2022/01/29 02:39:10;;;;;;;;;;;3.60;95.50;;;;;;5060892;28;19931;-76
2022/01/29 02:41:39;;;;;;;;;;;3.60;95.50;;;;;;5065606;28;19928;-76
2022/01/29 02:44:06;;;;;;;;;;;3.60;95.50;;;;;;5068149;28;19935;-74
2022/01/29 02:46:48;;;;;;;;;;;3.60;95.50;;;;;;5065260;28;20995;-76
2022/01/29 02:49:15;;;;;;;;;;;3.60;95.50;;;;;;5065028;28;19936;-76
2022/01/29 02:51:43;;;;;;;;;;;3.60;95.50;;;;;;5062614;28;20438;-76
2022/01/29 02:54:11;;;;;;;;;;;3.60;95.50;;;;;;5065621;28;19932;-76
2022/01/29 02:56:38;;;;;;;;;;;3.60;95.50;;;;;;5069258;28;19929;-75
2022/01/29 02:59:04;;;;;;;;;;;3.60;95.50;;;;;;5070859;28;19932;-76
2022/01/29 03:01:31;;;;;;;;;;;3.60;95.50;;;;;;5067458;28;19935;-76
2022/01/29 03:03:58;;;;;;;;;;;3.60;95.50;;;;;;5067633;28;19928;-75
2022/01/29 03:06:24;;;;;;;;;;;3.60;95.50;;;;;;5074557;28;19932;-75
2022/01/29 03:08:52;;;;;;;;;;;3.60;95.50;;;;;;5066761;28;19935;-76
2022/01/29 03:11:20;;;;;;;;;;;3.60;95.50;;;;;;5071350;28;19932;-74
2022/01/29 03:13:46;;;;;;;;;;;3.60;95.50;;;;;;5065809;28;19982;-78
2022/01/29 03:16:13;;;;;;;;;;;3.60;95.50;;;;;;5068446;28;19935;-76
2022/01/29 03:18:39;;;;;;;;;;;3.60;95.60;;;;;;5064729;28;19928;-76
2022/01/29 03:21:06;;;;;;;;;;;3.60;95.60;;;;;;5066133;28;19928;-75
2022/01/29 03:23:32;;;;;;;;;;;3.60;95.60;;;;;;5064190;28;20591;-75
2022/01/29 03:26:00;;;;;;;;;;;3.60;95.60;;;;;;5060799;28;19932;-75
2022/01/29 03:28:28;;;;;;;;;;;3.60;95.60;;;;;;5064536;28;20017;-77
2022/01/29 03:30:55;;;;;;;;;;;3.60;95.90;;;;;;5072067;28;19999;-76
2022/01/29 03:33:21;;;;;;;;;;;3.60;95.60;;;;;;5056952;28;20484;-75
2022/01/29 03:35:48;;;;;;;;;;;3.60;95.60;;;;;;5070305;28;19928;-75
2022/01/29 03:38:15;;;;;;;;;;;3.60;95.60;;;;;;5065960;28;20380;-77
2022/01/29 03:40:43;;;;;;;;;;;3.60;95.60;;;;;;5062222;28;19928;-76
2022/01/29 03:43:13;;;;;;;;;;;3.60;95.60;;;;;;5062417;28;19932;-76
2022/01/29 03:45:40;;;;;;;;;;;3.60;95.60;;;;;;5065267;28;20019;-74
2022/01/29 03:48:07;;;;;;;;;;;3.60;95.60;;;;;;5060392;28;19936;-77
2022/01/29 03:50:34;;;;;;;;;;;3.60;95.60;;;;;;5065498;28;19928;-76
2022/01/29 03:53:00;;;;;;;;;;;3.60;95.60;;;;;;5066710;28;19962;-75
2022/01/29 03:55:27;;;;;;;;;;;3.60;95.60;;;;;;5062621;28;20776;-75
2022/01/29 03:57:54;;;;;;;;;;;3.50;95.50;;;;;;5059421;28;19931;-76
2022/01/29 04:00:20;;;;;;;;;;;3.50;95.60;;;;;;5065165;28;19928;-76
2022/01/29 04:02:48;;;;;;;;;;;3.60;95.60;;;;;;5065987;28;19928;-77
2022/01/29 04:05:15;;;;;;;;;;;3.50;95.60;;;;;;5061641;28;19981;-76
2022/01/29 04:07:41;;;;;;;;;;;3.50;95.60;;;;;;5066215;28;19951;-76
2022/01/29 04:10:08;;;;;;;;;;;3.50;95.60;;;;;;5074026;28;19928;-75
2022/01/29 04:12:40;;;;;;;;;;;3.50;95.60;;;;;;5061653;28;19933;-76
2022/01/29 04:15:08;;;;;;;;;;;3.50;95.60;;;;;;5070290;28;19963;-76
2022/01/29 04:17:34;;;;;;;;;;;3.50;95.60;;;;;;5063488;28;19962;-76
2022/01/29 04:20:02;;;;;;;;;;;3.50;95.60;;;;;;5062221;28;19932;-76
2022/01/29 04:22:29;;;;;;;;;;;3.50;95.60;;;;;;5063243;28;19935;-76
2022/01/29 04:24:55;;;;;;;;;;;3.50;95.60;;;;;;5063531;28;19956;-76
2022/01/29 04:27:31;;;;;;;;;;;3.50;95.60;;;;;;5067399;28;19935;-75
2022/01/29 04:30:01;;;;;;;;;;;3.50;95.60;;;;;;5068651;28;19927;-76
2022/01/29 04:32:43;;;;;;;;;;;3.50;95.60;;;;;;5068072;28;19928;-75
2022/01/29 04:35:11;;;;;;;;;;;3.50;95.60;;;;;;5065715;28;20519;-76
2022/01/29 04:37:38;;;;;;;;;;;3.50;95.60;;;;;;5068485;28;19928;-76
2022/01/29 04:40:05;;;;;;;;;;;3.50;95.60;;;;;;5057035;28;19955;-77
2022/01/29 04:42:31;;;;;;;;;;;3.40;95.50;;;;;;5061482;28;19998;-75
2022/01/29 04:44:58;;;;;;;;;;;3.50;95.60;;;;;;5067696;28;19929;-75
2022/01/29 04:47:25;;;;;;;;;;;3.50;95.60;;;;;;5068096;28;19928;-76
2022/01/29 04:49:51;;;;;;;;;;;3.40;95.50;;;;;;5062708;28;20383;-75
2022/01/29 04:52:19;;;;;;;;;;;3.50;95.60;;;;;;5062246;28;20461;-75
2022/01/29 04:54:46;;;;;;;;;;;3.50;95.60;;;;;;5058273;28;20644;-76
2022/01/29 04:57:12;;;;;;;;;;;3.50;95.60;;;;;;5063183;28;19928;-76
2022/01/29 04:59:39;;;;;;;;;;;3.50;95.60;;;;;;5061212;28;19982;-75
2022/01/29 05:02:05;;;;;;;;;;;3.50;95.60;;;;;;5063438;28;19932;-75
2022/01/29 05:04:32;;;;;;;;;;;3.40;95.50;;;;;;5062702;28;19932;-75
2022/01/29 05:06:58;;;;;;;;;;;3.40;95.80;;;;;;5067389;28;19928;-76
2022/01/29 05:09:26;;;;;;;;;;;3.40;95.60;;;;;;5066318;28;19936;-76
2022/01/29 05:11:54;;;;;;;;;;;3.50;95.60;;;;;;5067991;28;19928;-75
2022/01/29 05:14:30;;;;;;;;;;;3.50;95.60;;;;;;5061176;28;19974;-75
2022/01/29 05:26:48;;;;;;;;;;;3.40;95.50;;;;;;5066165;28;19932;-76
2022/01/29 05:28:06;;;;;;;;;;;3.40;95.50;;;;;;5060613;28;19939;-74
2022/01/29 05:30:33;;;;;;;;;;;3.40;95.50;;;;;;5072898;28;19993;-75
2022/01/29 05:32:59;;;;;;;;;;;3.40;95.50;;;;;;5067030;28;19994;-75
2022/01/29 05:35:26;;;;;;;;;;;3.40;95.50;;;;;;5069183;28;19935;-75
2022/01/29 05:37:53;;;;;;;;;;;3.40;95.40;;;;;;5066699;28;19928;-76
2022/01/29 05:40:20;;;;;;;;;;;3.30;95.40;;;;;;5064608;28;20335;-75
2022/01/29 05:42:48;;;;;;;;;;;3.40;95.40;;;;;;5070621;28;19932;-76
2022/01/29 05:45:14;;;;;;;;;;;3.40;95.70;;;;;;5070300;28;19951;-75
2022/01/29 05:47:41;;;;;;;;;;;3.40;95.40;;;;;;5071412;28;19928;-76
2022/01/29 05:50:08;;;;;;;;;;;3.40;95.40;;;;;;5069466;28;19974;-75
2022/01/29 05:52:35;;;;;;;;;;;3.40;95.50;;;;;;5070004;28;19954;-76
2022/01/29 05:55:02;;;;;;;;;;;3.30;95.40;;;;;;5066643;28;19932;-76
2022/01/29 05:57:28;;;;;;;;;;;3.40;95.50;;;;;;5065245;28;19932;-76
2022/01/29 05:59:56;;;;;;;;;;;3.40;95.50;;;;;;5066943;28;19929;-74
2022/01/29 06:02:23;;;;;;;;;;;3.40;95.50;;;;;;5068998;28;20734;-75
2022/01/29 06:04:49;;;;;;;;;;;3.40;95.50;;;;;;5061637;28;19932;-76
2022/01/29 06:07:16;;;;;;;;;;;3.30;95.40;;;;;;5066340;28;19936;-75
2022/01/29 06:09:44;;;;;;;;;;;3.30;95.50;;;;;;5068325;28;19939;-75
2022/01/29 06:12:11;;;;;;;;;;;3.40;95.50;;;;;;5061152;28;20606;-75
2022/01/29 06:14:38;;;;;;;;;;;3.30;95.40;;;;;;5064191;28;19929;-75
2022/01/29 06:17:06;;;;;;;;;;;3.30;95.50;;;;;;5069377;28;20007;-77
2022/01/29 06:19:32;;;;;;;;;;;3.30;95.50;;;;;;5066416;28;20408;-77
2022/01/29 06:21:59;;;;;;;;;;;3.30;95.50;;;;;;5063028;28;19928;-76
2022/01/29 06:24:25;;;;;;;;;;;3.30;95.50;;;;;;5064896;28;19932;-75
2022/01/29 06:26:52;;;;;;;;;;;3.30;95.50;;;;;;5061811;28;19935;-76
2022/01/29 06:29:19;;;;;;;;;;;3.30;95.50;;;;;;5070166;28;20346;-75
2022/01/29 06:31:48;;;;;;;;;;;3.30;95.50;;;;;;5065132;28;19940;-76
2022/01/29 06:34:16;;;;;;;;;;;3.30;95.50;;;;;;5068686;28;20412;-76
2022/01/29 06:36:43;;;;;;;;;;;3.30;95.50;;;;;;5064256;28;19968;-76
2022/01/29 06:39:09;;;;;;;;;;;3.30;95.50;;;;;;5068242;28;19932;-76
2022/01/29 06:41:36;;;;;;;;;;;3.30;95.50;;;;;;5068975;28;19933;-75
2022/01/29 06:44:02;;;;;;;;;;;3.30;95.40;;;;;;5067546;28;19927;-75
2022/01/29 06:46:29;;;;;;;;;;;3.30;95.50;;;;;;5063787;28;19930;-75
2022/01/29 06:48:55;;;;;;;;;;;3.30;95.40;;;;;;5061873;28;20465;-75
2022/01/29 06:51:23;;;;;;;;;;;3.30;95.40;;;;;;5066441;28;19947;-75
2022/01/29 06:53:50;;;;;;;;;;;3.30;95.40;;;;;;5064792;28;20392;-75
2022/01/29 06:56:16;;;;;;;;;;;3.30;95.40;;;;;;5063074;28;19976;-76
2022/01/29 06:58:43;;;;;;;;;;;3.30;95.40;;;;;;5058413;28;19986;-78
2022/01/29 07:01:09;;;;;;;;;;;3.30;95.40;;;;;;5067954;28;20406;-74
2022/01/29 07:03:36;;;;;;;;;;;3.30;94.80;;;;;;5060224;28;19933;-74
2022/01/29 07:06:04;;;;;;;;;;;3.20;94.60;;;;;;5069421;28;19928;-74
2022/01/29 07:08:34;;;;;;;;;;;3.30;94.80;;;;;;5062376;28;20384;-74
2022/01/29 07:11:00;;;;;;;;;;;3.30;95.00;;;;;;5066367;28;20308;-75
2022/01/29 07:13:27;;;;;;;;;;;3.20;95.00;;;;;;5074076;28;19985;-75
2022/01/29 07:15:53;;;;;;;;;;;3.20;95.10;;;;;;5067073;28;19932;-74
2022/01/29 07:18:20;;;;;;;;;;;3.20;95.10;;;;;;5064826;28;19928;-75
2022/01/29 07:20:48;;;;;;;;;;;3.30;95.20;;;;;;5062415;28;20374;-76
2022/01/29 07:23:14;;;;;;;;;;;3.20;95.10;;;;;;5064538;28;19929;-75
2022/01/29 07:25:42;;;;;;;;;;;3.20;95.20;;;;;;5063535;28;19928;-76
2022/01/29 07:28:09;;;;;;;;;;;3.30;95.20;;;;;;5059345;28;19925;-76
2022/01/29 07:30:35;;;;;;;;;;;3.30;95.10;;;;;;5063636;28;19957;-76
2022/01/29 07:33:02;;;;;;;;;;;3.30;95.20;;;;;;5058914;28;19928;-76
2022/01/29 07:35:28;;;;;;;;;;;3.40;95.30;;;;;;5061450;28;19924;-75
2022/01/29 07:37:55;;;;;;;;;;;3.40;95.40;;;;;;5065792;28;19928;-76
2022/01/29 07:40:22;;;;;;;;;;;3.50;95.40;;;;;;5061345;28;19928;-75
2022/01/29 07:42:50;;;;;;;;;;;3.50;95.40;;;;;;5055534;28;20408;-77
2022/01/29 07:45:16;;;;;;;;;;;3.50;95.40;;;;;;5059575;28;20316;-77
2022/01/29 07:47:43;;;;;;;;;;;3.50;95.40;;;;;;5066927;28;20533;-76
2022/01/29 07:50:10;;;;;;;;;;;3.50;95.30;;;;;;5062071;28;19932;-74
2022/01/29 07:52:36;;;;;;;;;;;3.60;95.30;;;;;;5059552;28;19932;-76
2022/01/29 07:55:03;;;;;;;;;;;3.60;95.30;;;;;;5062504;28;19932;-76
2022/01/29 07:57:29;;;;;;;;;;;3.60;95.20;;;;;;5057794;28;19932;-76
2022/01/29 07:59:57;;;;;;;;;;;3.60;95.20;;;;;;5056218;28;19935;-76
2022/01/29 08:02:24;;;;;;;;;;;3.60;95.10;;;;;;5061174;28;19932;-76
2022/01/29 08:04:50;;;;;;;;;;;3.60;95.10;;;;;;5058216;28;20459;-76
2022/01/29 08:07:17;;;;;;;;;;;3.70;95.00;;;;;;5060033;28;19940;-75
2022/01/29 08:09:44;;;;;;;;;;;3.70;95.00;;;;;;5068117;28;19936;-76
2022/01/29 08:12:10;;;;;;;;;;;3.70;94.90;;;;;;5060342;28;19932;-76
2022/01/29 08:14:37;;;;;;;;;;;3.70;94.90;;;;;;5061130;28;20404;-75
2022/01/29 08:17:05;;;;;;;;;;;3.70;94.90;;;;;;5059668;28;19931;-76
2022/01/29 08:19:31;;;;;;;;;;;3.70;94.90;;;;;;5065246;28;19935;-77
2022/01/29 08:21:58;;;;;;;;;;;3.70;94.80;;;;;;5059993;28;19925;-76
2022/01/29 08:24:24;;;;;;;;;;;3.70;94.80;;;;;;5059229;28;19938;-77
2022/01/29 08:26:51;;;;;;;;;;;3.80;94.80;;;;;;5057604;28;19928;-77
2022/01/29 08:29:17;;;;;;;;;;;3.80;94.80;;;;;;5064879;28;20350;-75
2022/01/29 08:31:44;;;;;;;;;;;3.80;94.80;;;;;;5061443;28;20031;-77
2022/01/29 08:34:12;;;;;;;;;;;3.80;94.70;;;;;;5054086;28;19935;-76
2022/01/29 08:36:39;;;;;;;;;;;3.80;94.70;;;;;;5058152;28;19940;-76
2022/01/29 08:39:05;;;;;;;;;;;3.80;94.70;;;;;;5062814;28;20558;-77
2022/01/29 08:41:32;;;;;;;;;;;3.80;94.60;;;;;;5065776;28;20570;-76
2022/01/29 08:43:58;;;;;;;;;;;3.80;94.60;;;;;;5063060;28;19932;-77
2022/01/29 08:46:25;;;;;;;;;;;3.90;94.60;;;;;;5058668;28;19936;-76
2022/01/29 08:48:52;;;;;;;;;;;3.80;94.50;;;;;;5062719;28;19979;-76
2022/01/29 08:51:20;;;;;;;;;;;3.90;94.50;;;;;;5063436;28;21306;-78
2022/01/29 08:53:46;;;;;;;;;;;3.80;94.40;;;;;;5062278;28;19950;-77
2022/01/29 08:56:15;;;;;;;;;;;3.90;94.40;;;;;;5061068;28;19929;-76
2022/01/29 08:58:42;;;;;;;;;;;3.90;94.40;;;;;;5059790;28;19948;-77
2022/01/29 09:01:09;;;;;;;;;;;3.90;94.40;;;;;;5058400;28;20041;-77
2022/01/29 09:03:36;;;;;;;;;;;3.90;94.30;;;;;;5053889;28;19928;-76
2022/01/29 09:06:03;;;;;;;;;;;3.90;94.20;;;;;;5058326;28;20332;-77
2022/01/29 09:08:31;;;;;;;;;;;3.90;94.20;;;;;;5057245;28;19998;-76
2022/01/29 09:10:58;;;;;;;;;;;3.90;94.20;;;;;;5055241;28;19928;-74
2022/01/29 09:13:24;;;;;;;;;;;4.00;94.40;;;;;;5059900;28;20002;-70
2022/01/29 09:15:51;;;;;;;;;;;4.10;94.10;;;;;;5063447;28;19929;-70
2022/01/29 09:18:18;;;;;;;;;;;4.10;93.90;;;;;;5058410;28;19936;-71
2022/01/29 09:20:44;;;;;;;;;;;4.10;93.60;;;;;;5060229;28;20540;-69
2022/01/29 09:23:11;;;;;;;;;;;4.10;93.90;;;;;;5060265;28;20478;-69
2022/01/29 09:25:39;;;;;;;;;;;4.10;93.80;;;;;;5060155;28;19932;-72
2022/01/29 09:28:06;;;;;;;;;;;4.10;93.80;;;;;;5064835;28;20396;-71
2022/01/29 09:30:33;;;;;;;;;;;4.10;93.80;;;;;;5069969;28;19943;-71
2022/01/29 09:33:00;;;;;;;;;;;4.10;93.80;;;;;;5061636;28;19929;-69
2022/01/29 09:35:27;;;;;;;;;;;4.10;93.70;;;;;;5065771;28;19929;-71
2022/01/29 09:37:54;;;;;;;;;;;4.10;93.70;;;;;;5071681;28;19985;-70
2022/01/29 09:40:21;;;;;;;;;;;4.10;93.80;;;;;;5057777;28;19929;-69
2022/01/29 09:42:50;;;;;;;;;;;4.10;93.70;;;;;;5051079;28;19932;-71
2022/01/29 09:45:18;;;;;;;;;;;4.10;93.70;;;;;;5062433;28;20019;-71
2022/01/29 09:47:46;;;;;;;;;;;4.20;93.80;;;;;;5061090;28;19932;-70
2022/01/29 09:50:13;;;;;;;;;;;4.20;93.80;;;;;;5065287;28;19939;-70
2022/01/29 09:52:40;;;;;;;;;;;4.20;93.70;;;;;;5065618;28;19974;-68
2022/01/29 09:55:07;;;;;;;;;;;4.20;93.70;;;;;;5065479;28;19932;-72
2022/01/29 09:57:33;;;;;;;;;;;4.20;93.70;;;;;;5064643;28;19928;-70
2022/01/29 10:00:01;;;;;;;;;;;4.20;93.70;;;;;;5068697;28;19924;-69
2022/01/29 10:02:28;;;;;;;;;;;4.20;93.70;;;;;;5065417;28;19932;-69
2022/01/29 10:04:55;;;;;;;;;;;4.20;93.80;;;;;;5069927;28;19932;-71
2022/01/29 10:07:24;;;;;;;;;;;4.20;93.80;;;;;;5068922;28;20018;-69
2022/01/29 10:09:51;;;;;;;;;;;4.20;93.80;;;;;;5064580;28;19963;-71
2022/01/29 10:12:19;;;;;;;;;;;4.20;93.80;;;;;;5055445;28;19936;-69
2022/01/29 10:14:46;;;;;;;;;;;4.20;94.20;;;;;;5066130;28;20005;-71
2022/01/29 10:17:15;;;;;;;;;;;4.30;93.90;;;;;;5058694;28;19928;-69
2022/01/29 10:19:42;;;;;;;;;;;4.20;93.90;;;;;;5059560;28;19959;-71
2022/01/29 10:22:08;;;;;;;;;;;4.20;93.90;;;;;;5062792;28;19944;-69
2022/01/29 10:24:49;;;;;;;;;;;4.30;93.90;;;;;;5061137;28;19935;-70
2022/01/29 10:27:15;;;;;;;;;;;4.20;94.00;;;;;;5070196;28;19928;-69
2022/01/29 10:29:58;;;;;;;;;;;4.30;94.10;;;;;;5059693;28;19982;-70
2022/01/29 10:32:26;;;;;;;;;;;4.30;94.10;;;;;;5064073;28;19932;-70
2022/01/29 10:34:55;;;;;;;;;;;4.30;94.20;;;;;;5058286;28;19940;-70
2022/01/29 10:37:22;;;;;;;;;;;4.30;94.20;;;;;;5066597;28;19959;-70
2022/01/29 10:39:51;;;;;;;;;;;4.30;94.30;;;;;;5063380;28;19936;-71
2022/01/29 10:42:19;;;;;;;;;;;4.30;94.30;;;;;;5059706;28;20396;-69
2022/01/29 10:44:46;;;;;;;;;;;4.30;94.30;;;;;;5064251;28;20041;-70
2022/01/29 10:47:13;;;;;;;;;;;4.30;94.40;;;;;;5062720;28;20391;-70
2022/01/29 10:49:50;;;;;;;;;;;4.30;94.40;;;;;;5064579;28;19989;-71
2022/01/29 10:52:17;;;;;;;;;;;4.30;94.40;;;;;;5063884;28;19928;-69
2022/01/29 10:54:47;;;;;;;;;;;4.40;94.40;;;;;;5065172;28;19928;-71
2022/01/29 10:57:14;;;;;;;;;;;4.30;94.40;;;;;;5060031;28;20014;-77
2022/01/29 10:59:46;;;;;;;;;;;4.40;94.50;;;;;;5061437;28;20307;-75
2022/01/29 11:02:13;;;;;;;;;;;4.40;94.50;;;;;;5061614;28;20467;-76
2022/01/29 11:04:42;;;;;;;;;;;4.40;94.50;;;;;;5068758;28;19935;-75
2022/01/29 11:07:13;;;;;;;;;;;4.40;94.50;;;;;;5066309;28;19935;-75
2022/01/29 11:09:41;;;;;;;;;;;4.30;94.50;;;;;;5066328;28;19935;-76
2022/01/29 11:12:09;;;;;;;;;;;4.40;94.60;;;;;;5064440;28;20402;-77
2022/01/29 11:14:36;;;;;;;;;;;4.40;94.60;;;;;;5061829;28;19990;-76
2022/01/29 11:17:03;;;;;;;;;;;4.40;94.60;;;;;;5061500;28;19929;-76
2022/01/29 11:19:30;;;;;;;;;;;4.40;94.60;;;;;;5061192;28;19925;-74
2022/01/29 11:22:00;;;;;;;;;;;4.40;94.60;;;;;;5063786;28;20087;-75
2022/01/29 11:24:27;;;;;;;;;;;4.40;94.70;;;;;;5061396;28;19932;-77
2022/01/29 11:26:54;;;;;;;;;;;4.40;94.70;;;;;;5065840;28;20743;-77
2022/01/29 11:29:24;;;;;;;;;;;4.40;94.70;;;;;;5059371;28;19978;-76
2022/01/29 11:32:06;;;;;;;;;;;4.40;94.70;;;;;;5059774;28;19954;-76
2022/01/29 11:34:32;;;;;;;;;;;4.40;94.70;;;;;;5062473;28;19932;-75
2022/01/29 11:37:04;;;;;;;;;;;4.40;94.70;;;;;;5064975;28;19939;-74
2022/01/29 11:39:33;;;;;;;;;;;4.50;94.70;;;;;;5066840;28;19972;-77
2022/01/29 11:42:15;;;;;;;;;;;4.40;94.70;;;;;;5061910;28;20319;-76
2022/01/29 11:44:42;;;;;;;;;;;4.40;94.70;;;;;;5062705;28;19928;-75
2022/01/29 11:47:24;;;;;;;;;;;4.50;94.70;;;;;;5061302;28;19928;-75
2022/01/29 11:49:50;;;;;;;;;;;4.50;94.70;;;;;;5060013;28;20636;-76
2022/01/29 11:52:22;;;;;;;;;;;4.50;94.70;;;;;;5060751;28;19932;-75
2022/01/29 11:54:59;;;;;;;;;;;4.50;94.80;;;;;;5059405;28;19933;-76
2022/01/29 11:57:26;;;;;;;;;;;4.50;94.70;;;;;;5066864;28;20013;-76
2022/01/29 11:59:52;;;;;;;;;;;4.50;94.70;;;;;;5065914;28;20339;-74
2022/01/29 12:02:35;;;;;;;;;;;4.50;94.70;;;;;;5062921;28;20378;-75
2022/01/29 12:05:07;;;;;;;;;;;4.50;94.70;;;;;;5064364;28;19928;-77
2022/01/29 12:07:39;;;;;;;;;;;4.60;94.70;;;;;;5061660;28;20049;-75
2022/01/29 12:10:08;;;;;;;;;;;4.60;94.70;;;;;;5062515;28;20720;-75
2022/01/29 12:12:35;;;;;;;;;;;4.60;94.70;;;;;;5059195;28;19970;-76
2022/01/29 12:15:21;;;;;;;;;;;4.60;94.70;;;;;;5062466;28;20673;-76
2022/01/29 12:17:50;;;;;;;;;;;4.60;94.60;;;;;;5061753;28;19928;-72
2022/01/29 12:20:17;;;;;;;;;;;4.50;94.60;;;;;;5061494;28;19931;-77
2022/01/29 12:22:46;;;;;;;;;;;4.60;94.60;;;;;;5055593;28;19999;-78
2022/01/29 12:25:13;;;;;;;;;;;4.60;94.50;;;;;;5060371;28;19932;-77
2022/01/29 12:27:45;;;;;;;;;;;4.60;94.50;;;;;;5061916;28;19935;-77
2022/01/29 12:30:12;;;;;;;;;;;4.60;94.50;;;;;;5054981;28;20077;-77
2022/01/29 12:32:40;;;;;;;;;;;4.60;94.50;;;;;;5059228;28;20202;-78
2022/01/29 12:35:07;;;;;;;;;;;4.60;94.50;;;;;;5055075;28;19929;-77
2022/01/29 12:37:34;;;;;;;;;;;4.60;94.50;;;;;;5062089;28;19962;-77
2022/01/29 12:40:07;;;;;;;;;;;4.60;94.40;;;;;;5058839;28;19929;-77
2022/01/29 12:42:43;;;;;;;;;;;4.60;94.40;;;;;;5056116;28;19933;-78
2022/01/29 12:45:09;;;;;;;;;;;4.60;94.40;;;;;;5060808;28;19939;-75
2022/01/29 12:47:36;;;;;;;;;;;4.60;94.40;;;;;;5047407;28;20030;-75
2022/01/29 12:50:03;;;;;;;;;;;4.70;94.40;;;;;;5060295;28;20384;-78
2022/01/29 12:52:30;;;;;;;;;;;4.70;94.40;;;;;;5060736;28;19932;-76
2022/01/29 12:54:58;;;;;;;;;;;4.70;94.30;;;;;;5059806;28;19932;-78
2022/01/29 12:57:27;;;;;;;;;;;4.70;94.30;;;;;;5057006;28;20415;-77
2022/01/29 12:59:53;;;;;;;;;;;4.70;94.20;;;;;;5057489;28;19932;-76
2022/01/29 13:02:21;;;;;;;;;;;4.70;94.20;;;;;;5060209;28;19934;-76
2022/01/29 13:04:48;;;;;;;;;;;4.70;94.20;;;;;;5058769;28;19936;-76
2022/01/29 13:07:18;;;;;;;;;;;4.70;94.30;;;;;;5056159;28;19946;-76
2022/01/29 13:09:44;;;;;;;;;;;4.70;94.30;;;;;;5060648;28;19986;-75
2022/01/29 13:12:12;;;;;;;;;;;4.70;94.30;;;;;;5062072;28;19951;-78
2022/01/29 13:14:40;;;;;;;;;;;4.80;94.30;;;;;;5059861;28;19928;-76
2022/01/29 13:17:08;;;;;;;;;;;4.80;94.30;;;;;;5060540;28;19974;-77
2022/01/29 13:19:35;;;;;;;;;;;4.80;94.30;;;;;;5060090;28;19932;-78
2022/01/29 13:22:03;;;;;;;;;;;4.80;94.30;;;;;;5062249;28;19936;-77
2022/01/29 13:24:31;;;;;;;;;;;4.80;94.30;;;;;;5065563;28;20350;-77
2022/01/29 13:26:59;;;;;;;;;;;4.80;94.30;;;;;;5070047;28;20011;-75
2022/01/29 13:29:32;;;;;;;;;;;4.80;94.30;;;;;;5065249;28;20159;-77
2022/01/29 13:32:00;;;;;;;;;;;4.80;94.40;;;;;;5062439;28;20321;-77
2022/01/29 13:34:27;;;;;;;;;;;4.80;94.40;;;;;;5064106;28;20346;-78
2022/01/29 13:36:54;;;;;;;;;;;4.80;94.40;;;;;;5064105;28;19929;-77
2022/01/29 13:39:20;;;;;;;;;;;4.80;94.40;;;;;;5068636;28;20330;-76
2022/01/29 13:41:47;;;;;;;;;;;4.80;94.40;;;;;;5063538;28;19935;-77
2022/01/29 13:44:14;;;;;;;;;;;4.90;94.50;;;;;;5061030;28;19925;-77
2022/01/29 13:46:40;;;;;;;;;;;4.80;94.40;;;;;;5064733;28;19935;-77
2022/01/29 13:49:08;;;;;;;;;;;4.80;94.40;;;;;;5064058;28;19928;-77
2022/01/29 13:51:36;;;;;;;;;;;4.90;94.50;;;;;;5063221;28;19932;-76
2022/01/29 13:54:04;;;;;;;;;;;4.90;94.50;;;;;;5064295;28;19928;-77
2022/01/29 13:56:31;;;;;;;;;;;5.00;94.50;;;;;;5060473;28;19936;-77
2022/01/29 13:58:58;;;;;;;;;;;4.90;94.50;;;;;;5064176;28;19937;-76
2022/01/29 14:01:35;;;;;;;;;;;4.90;94.50;;;;;;5059082;28;19935;-78
2022/01/29 14:04:01;;;;;;;;;;;4.90;94.50;;;;;;5059512;28;19954;-78
2022/01/29 14:06:32;;;;;;;;;;;5.00;94.50;;;;;;5058928;28;19925;-77
2022/01/29 14:09:09;;;;;;;;;;;5.00;94.50;;;;;;5065368;28;20266;-75
2022/01/29 14:11:55;;;;;;;;;;;5.00;94.50;;;;;;5060723;28;19940;-76
2022/01/29 14:14:22;;;;;;;;;;;5.00;94.60;;;;;;5060268;28;19981;-78
2022/01/29 14:16:48;;;;;;;;;;;5.00;94.60;;;;;;5057249;28;19928;-76
2022/01/29 14:19:16;;;;;;;;;;;5.00;94.70;;;;;;5059375;28;19928;-73
2022/01/29 14:21:44;;;;;;;;;;;5.10;94.50;;;;;;5069770;28;20412;-74
2022/01/29 14:24:11;;;;;;;;;;;5.20;94.40;;;;;;5062620;28;20010;-74
2022/01/29 14:26:38;;;;;;;;;;;5.20;94.40;;;;;;5065827;28;19936;-74
2022/01/29 14:29:04;;;;;;;;;;;5.20;94.40;;;;;;5077316;28;20028;-74
2022/01/29 14:31:31;;;;;;;;;;;5.10;94.40;;;;;;5066275;28;19932;-74
2022/01/29 14:33:57;;;;;;;;;;;5.20;94.50;;;;;;5067882;28;19997;-75
2022/01/29 14:36:24;;;;;;;;;;;5.10;94.80;;;;;;5067660;28;19928;-74
2022/01/29 14:38:51;;;;;;;;;;;5.10;94.60;;;;;;5071063;28;20701;-74
2022/01/29 14:41:18;;;;;;;;;;;5.10;94.60;;;;;;5061692;28;20506;-73
2022/01/29 14:43:45;;;;;;;;;;;5.10;94.60;;;;;;5063565;28;20316;-74